Terminal Aerodrome Forecast
Issued by NWS Sterling, VA

Current Version | Previous Version | Graphics & Text | Print | Product List | Glossary On
Versions: 1 2 3 4 5 6 7 8 9 10 11 12 13 14 15 16 17 18 19 20 21 22 23 24 25 26 27
634
FTUS41 KLWX 242320
TAFIAD
TAF
KIAD 242320Z 2500/2606 28006KT P6SM SCT050 SCT250
     FM250200 34005KT P6SM SCT050 SCT250
     FM250900 VRB03KT P6SM FEW050 SCT250
     FM251400 30010G18KT P6SM SCT060
     FM252300 30008KT P6SM FEW250=

USA.gov is the U.S. government's official web portal to all federal, state and local government web resources and services.